Time;durP1;ratioP1;P1;durP2;ratioP2;P2;SDS_P1;SDS_P2;PMS_P1;PMS_P2;Temp;Humidity;BMP_temperature;BMP_pressure;BME280_temperature;BME280_humidity;BME280_pressure;Samples;Min_cycle;Max_cycle;Signal;HPM_P1;HPM_P2
2021/08/24 00:00:59;;;;;;;4.50;2.80;;;14.00;99.90;;;;;;5094248;28;20145;-68
2021/08/24 00:03:25;;;;;;;4.90;3.00;;;13.90;99.90;;;;;;5094182;28;20039;-68
2021/08/24 00:05:50;;;;;;;4.40;2.92;;;13.90;99.90;;;;;;5094374;28;20067;-68
2021/08/24 00:08:16;;;;;;;5.57;3.38;;;13.80;99.90;;;;;;5094113;28;20016;-68
2021/08/24 00:10:46;;;;;;;4.65;2.83;;;13.80;99.90;;;;;;5094129;28;20020;-68
2021/08/24 00:13:12;;;;;;;3.47;2.75;;;13.70;99.90;;;;;;5094055;28;20023;-68
2021/08/24 00:15:38;;;;;;;3.33;2.55;;;13.60;99.90;;;;;;5094325;28;20020;-68
2021/08/24 00:18:04;;;;;;;4.85;2.60;;;13.60;99.90;;;;;;5093134;28;20101;-68
2021/08/24 00:20:31;;;;;;;5.60;2.95;;;13.40;99.90;;;;;;5093532;28;20039;-68
2021/08/24 00:23:02;;;;;;;6.72;3.03;;;13.30;99.90;;;;;;5092808;28;20105;-68
2021/08/24 00:25:28;;;;;;;5.95;3.05;;;13.20;99.90;;;;;;5093712;28;20036;-68
2021/08/24 00:27:53;;;;;;;7.22;3.10;;;13.10;99.90;;;;;;5094219;28;20486;-68
2021/08/24 00:30:19;;;;;;;4.18;3.10;;;13.00;99.90;;;;;;5093890;28;20020;-68
2021/08/24 00:32:44;;;;;;;3.78;3.00;;;13.00;99.90;;;;;;5093575;28;20509;-69
2021/08/24 00:35:10;;;;;;;4.15;3.20;;;13.00;99.90;;;;;;5093831;28;20043;-68
2021/08/24 00:37:35;;;;;;;7.60;3.47;;;12.90;99.90;;;;;;5094085;28;20452;-68
2021/08/24 00:40:03;;;;;;;4.68;3.20;;;12.90;99.90;;;;;;5094055;28;20020;-68
2021/08/24 00:42:28;;;;;;;4.25;3.10;;;12.90;99.90;;;;;;5094041;28;20526;-68
2021/08/24 00:44:54;;;;;;;5.90;3.28;;;12.80;99.90;;;;;;5094025;28;20028;-68
2021/08/24 00:47:22;;;;;;;4.35;3.40;;;12.70;99.90;;;;;;5093941;28;20032;-67
2021/08/24 00:49:49;;;;;;;5.43;3.40;;;12.70;99.90;;;;;;5093966;28;20055;-68
2021/08/24 00:52:17;;;;;;;5.82;3.47;;;12.60;99.90;;;;;;5093970;28;20377;-67
2021/08/24 00:54:45;;;;;;;5.15;3.97;;;12.50;99.90;;;;;;5093655;28;20457;-67
2021/08/24 00:57:20;;;;;;;5.28;3.70;;;12.40;99.90;;;;;;5093639;28;20028;-67
2021/08/24 00:59:46;;;;;;;6.55;4.05;;;12.40;99.90;;;;;;5093295;28;20028;-67
2021/08/24 01:02:14;;;;;;;6.55;3.97;;;12.50;99.90;;;;;;5093575;28;20103;-67
2021/08/24 01:04:40;;;;;;;6.85;4.35;;;12.70;99.90;;;;;;5093847;28;20016;-68
2021/08/24 01:07:34;;;;;;;5.78;4.47;;;12.90;99.90;;;;;;5093677;28;20111;-68
2021/08/24 01:10:26;;;;;;;8.65;3.97;;;13.00;99.90;;;;;;5093241;28;20473;-69
2021/08/24 01:16:27;;;;;;;5.10;3.97;;;13.10;99.90;;;;;;5071657;28;20454;-68
2021/08/24 01:19:13;;;;;;;7.00;4.25;;;13.20;99.90;;;;;;5071276;28;20068;-69
2021/08/24 01:22:18;;;;;;;10.30;4.60;;;13.10;99.90;;;;;;5071021;28;20394;-68
2021/08/24 01:24:50;;;;;;;6.05;4.07;;;13.10;99.90;;;;;;5070628;28;20096;-68
2021/08/24 01:27:27;;;;;;;7.80;3.77;;;13.00;99.90;;;;;;5053773;28;20109;-69
2021/08/24 01:30:17;;;;;;;6.32;4.38;;;12.90;99.90;;;;;;5071169;28;20282;-68
2021/08/24 01:32:55;;;;;;;8.93;4.43;;;13.00;99.90;;;;;;5069778;28;20028;-68
2021/08/24 01:35:49;;;;;;;5.88;4.00;;;13.00;99.90;;;;;;5071005;28;20021;-68
2021/08/24 01:38:22;;;;;;;8.25;4.68;;;13.00;99.90;;;;;;5070771;28;20033;-69
2021/08/24 01:41:04;;;;;;;6.35;4.13;;;13.00;99.90;;;;;;5070765;28;20441;-68
2021/08/24 01:43:39;;;;;;;6.07;4.97;;;13.00;99.90;;;;;;5070643;28;20029;-68
2021/08/24 01:46:30;;;;;;;10.20;4.75;;;13.00;99.90;;;;;;5070861;28;20031;-68
2021/08/24 01:49:00;;;;;;;10.38;4.70;;;12.90;99.90;;;;;;5070206;28;20016;-68
2021/08/24 01:51:30;;;;;;;7.70;4.70;;;12.80;99.90;;;;;;5070773;28;20043;-68
2021/08/24 01:54:00;;;;;;;7.35;4.70;;;12.70;99.90;;;;;;5070633;28;20477;-68
2021/08/24 01:56:35;;;;;;;6.82;4.72;;;12.70;99.90;;;;;;5070365;28;20032;-68
2021/08/24 01:59:41;;;;;;;11.63;5.47;;;12.70;99.90;;;;;;5070322;28;20024;-69
2021/08/24 02:02:11;;;;;;;10.25;4.95;;;12.70;99.90;;;;;;5069893;28;20031;-69
2021/08/24 02:04:58;;;;;;;7.15;4.90;;;12.70;99.90;;;;;;5070225;28;20112;-66
2021/08/24 02:07:27;;;;;;;7.65;4.93;;;12.70;99.90;;;;;;5070404;28;20021;-69
2021/08/24 02:09:59;;;;;;;8.75;5.18;;;12.80;99.90;;;;;;5070341;28;20467;-67
2021/08/24 02:12:30;;;;;;;11.43;5.40;;;12.80;99.90;;;;;;5070304;28;20081;-66
2021/08/24 02:14:56;;;;;;;9.45;5.60;;;12.80;99.90;;;;;;5069421;28;20052;-69
2021/08/24 02:17:23;;;;;;;7.97;5.50;;;12.80;99.90;;;;;;5070178;28;20038;-68
2021/08/24 02:19:56;;;;;;;8.43;5.65;;;12.80;99.90;;;;;;5069595;28;20031;-68
2021/08/24 02:22:28;;;;;;;9.15;5.32;;;12.80;99.90;;;;;;5070081;28;20021;-68
2021/08/24 02:25:01;;;;;;;9.07;6.20;;;12.90;99.90;;;;;;5051392;28;20437;-69
2021/08/24 02:27:30;;;;;;;9.85;5.50;;;12.80;99.90;;;;;;5056500;28;20075;-68
2021/08/24 02:29:56;;;;;;;5.97;5.20;;;12.80;99.90;;;;;;5056746;28;20047;-69
2021/08/24 02:32:26;;;;;;;7.95;5.53;;;12.70;99.90;;;;;;5055277;28;20033;-68
2021/08/24 02:34:58;;;;;;;8.48;6.22;;;12.80;99.90;;;;;;5056581;28;20029;-69
2021/08/24 02:37:41;;;;;;;8.82;6.35;;;12.70;99.90;;;;;;5056623;28;20017;-69
2021/08/24 02:40:34;;;;;;;8.50;5.97;;;12.70;99.90;;;;;;5055173;28;20026;-68
2021/08/24 02:43:21;;;;;;;7.70;6.07;;;12.70;99.90;;;;;;5056551;28;20052;-68
2021/08/24 02:45:59;;;;;;;10.25;6.07;;;12.70;99.90;;;;;;5056466;28;20359;-69
2021/08/24 02:48:26;;;;;;;11.20;6.18;;;12.60;99.90;;;;;;5056147;28;20475;-69
2021/08/24 02:50:53;;;;;;;8.18;5.85;;;12.60;99.90;;;;;;5055191;28;20459;-69
2021/08/24 02:53:21;;;;;;;9.98;6.30;;;12.50;99.90;;;;;;5056032;28;20553;-69
2021/08/24 02:55:47;;;;;;;11.20;6.13;;;12.40;99.90;;;;;;5055939;28;20496;-68
2021/08/24 02:58:13;;;;;;;9.45;6.65;;;12.30;99.90;;;;;;5056211;28;20013;-69
2021/08/24 03:00:38;;;;;;;8.85;6.68;;;12.20;99.90;;;;;;5056190;28;20068;-68
2021/08/24 03:03:03;;;;;;;8.15;6.80;;;12.10;99.90;;;;;;5055841;28;20057;-68
2021/08/24 03:05:29;;;;;;;10.18;6.55;;;12.00;99.90;;;;;;5055797;28;20052;-68
2021/08/24 03:07:55;;;;;;;8.55;6.78;;;12.00;99.90;;;;;;5056052;28;20474;-68
2021/08/24 03:10:23;;;;;;;8.60;6.78;;;11.90;99.90;;;;;;5055705;28;20031;-68
2021/08/24 03:16:08;;;;;;;7.97;6.95;;;11.80;99.90;;;;;;5071679;28;20830;-68
2021/08/24 03:18:41;;;;;;;11.75;7.20;;;11.80;99.90;;;;;;5069925;28;20390;-68
2021/08/24 03:21:11;;;;;;;10.20;6.20;;;11.70;99.90;;;;;;5071375;28;20024;-68
2021/08/24 03:23:38;;;;;;;9.05;7.07;;;11.60;99.90;;;;;;5071289;28;20025;-69
2021/08/24 03:26:05;;;;;;;10.52;7.20;;;11.50;99.90;;;;;;5070726;28;20013;-68
2021/08/24 03:28:31;;;;;;;9.57;7.70;;;11.40;99.90;;;;;;5071200;28;20021;-69
2021/08/24 03:30:56;;;;;;;12.48;7.47;;;11.30;99.90;;;;;;5071174;28;20020;-69
2021/08/24 03:33:22;;;;;;;10.45;7.70;;;11.30;99.90;;;;;;5069665;28;20021;-68
2021/08/24 03:35:48;;;;;;;11.20;8.18;;;11.20;99.90;;;;;;5070973;28;20023;-68
2021/08/24 03:38:13;;;;;;;12.23;8.35;;;11.10;99.90;;;;;;5070478;28;20017;-68
2021/08/24 03:40:39;;;;;;;9.18;7.50;;;11.10;99.90;;;;;;5070976;28;20036;-69
2021/08/24 03:43:05;;;;;;;12.90;7.78;;;11.00;99.90;;;;;;5070692;28;20421;-68
2021/08/24 03:45:31;;;;;;;9.32;7.20;;;10.90;99.90;;;;;;5070563;28;20486;-69
2021/08/24 03:47:57;;;;;;;10.27;7.32;;;10.90;99.90;;;;;;5070248;28;20056;-68
2021/08/24 03:50:23;;;;;;;8.75;7.55;;;10.90;99.90;;;;;;5070751;28;20028;-68
2021/08/24 03:52:49;;;;;;;10.15;8.52;;;10.80;99.90;;;;;;5070141;28;20098;-68
2021/08/24 03:55:16;;;;;;;12.65;8.25;;;10.80;99.90;;;;;;5070298;28;20116;-68
2021/08/24 03:57:42;;;;;;;11.15;7.85;;;10.70;99.90;;;;;;5070345;28;20024;-68
2021/08/24 04:00:08;;;;;;;9.77;7.68;;;10.80;99.90;;;;;;5070567;28;20462;-69
2021/08/24 04:02:34;;;;;;;12.73;8.23;;;10.70;99.90;;;;;;5070224;28;20466;-68
2021/08/24 04:05:02;;;;;;;10.70;8.38;;;10.60;99.90;;;;;;5070445;28;20025;-68
2021/08/24 04:07:28;;;;;;;10.27;7.78;;;10.60;99.90;;;;;;5070386;28;20055;-69
2021/08/24 04:09:54;;;;;;;13.43;8.70;;;10.50;99.90;;;;;;5070325;28;20027;-68
2021/08/24 04:12:20;;;;;;;11.05;8.50;;;10.50;99.90;;;;;;5069710;28;20029;-68
2021/08/24 04:14:45;;;;;;;11.93;8.60;;;10.50;99.90;;;;;;5069561;28;20043;-69
2021/08/24 04:17:11;;;;;;;11.63;9.15;;;10.40;99.90;;;;;;5069908;28;20355;-68
2021/08/24 04:19:37;;;;;;;12.13;9.27;;;10.40;99.90;;;;;;5069585;28;20032;-68
2021/08/24 04:22:06;;;;;;;9.57;7.82;;;10.40;99.90;;;;;;5070071;28;20021;-68
2021/08/24 04:24:32;;;;;;;15.13;10.38;;;10.40;99.90;;;;;;5070012;28;20028;-68
2021/08/24 04:26:58;;;;;;;15.05;11.68;;;10.50;99.90;;;;;;5058226;28;20437;-68
2021/08/24 04:29:23;;;;;;;16.40;11.82;;;10.50;99.90;;;;;;5056480;28;20386;-68
2021/08/24 04:31:49;;;;;;;16.85;11.68;;;10.60;99.90;;;;;;5056703;28;20029;-67
2021/08/24 04:34:14;;;;;;;15.30;10.50;;;10.60;99.90;;;;;;5056627;28;20067;-67
2021/08/24 04:36:40;;;;;;;17.08;12.80;;;10.60;99.90;;;;;;5056345;28;20040;-67
2021/08/24 04:39:06;;;;;;;13.80;11.27;;;10.60;99.90;;;;;;5056306;28;20383;-68
2021/08/24 04:41:31;;;;;;;13.07;10.48;;;10.60;99.90;;;;;;5056243;28;20021;-67
2021/08/24 04:43:57;;;;;;;16.42;11.27;;;10.60;99.90;;;;;;5056458;28;20047;-67
2021/08/24 04:46:23;;;;;;;15.20;11.73;;;10.60;99.90;;;;;;5056452;28;20028;-67
2021/08/24 04:48:48;;;;;;;13.10;10.48;;;10.60;99.90;;;;;;5056374;28;20021;-67
2021/08/24 04:51:14;;;;;;;12.10;9.98;;;10.60;99.90;;;;;;5056339;28;20108;-67
2021/08/24 04:53:39;;;;;;;13.63;10.40;;;10.70;99.90;;;;;;5055635;28;20032;-67
2021/08/24 04:56:05;;;;;;;15.30;10.43;;;10.70;99.90;;;;;;5056001;28;20025;-67
2021/08/24 04:58:30;;;;;;;14.50;10.10;;;10.70;99.90;;;;;;5055901;28;20041;-67
2021/08/24 05:00:56;;;;;;;18.20;11.98;;;10.80;99.90;;;;;;5056180;28;20033;-67
2021/08/24 05:03:21;;;;;;;20.23;12.70;;;10.90;99.90;;;;;;5056154;28;20506;-67
2021/08/24 05:05:47;;;;;;;16.48;11.93;;;11.10;99.90;;;;;;5056053;28;20417;-68
2021/08/24 05:08:12;;;;;;;14.23;11.45;;;11.10;99.90;;;;;;5055972;28;20103;-67
2021/08/24 05:10:38;;;;;;;19.25;13.02;;;11.20;99.90;;;;;;5055953;28;20031;-68
2021/08/24 05:13:04;;;;;;;13.05;11.20;;;11.40;99.90;;;;;;5054127;28;20056;-67
2021/08/24 05:15:30;;;;;;;18.88;12.15;;;11.50;99.90;;;;;;5055185;28;20099;-67
2021/08/24 05:17:56;;;;;;;16.10;11.00;;;11.70;99.90;;;;;;5055573;28;20013;-67
2021/08/24 05:20:22;;;;;;;14.13;10.50;;;11.80;99.90;;;;;;5053945;28;20056;-67
2021/08/24 05:22:48;;;;;;;13.35;9.82;;;11.90;99.90;;;;;;5055199;28;20060;-67
2021/08/24 05:25:18;;;;;;;13.38;10.48;;;12.00;99.90;;;;;;5055705;28;20029;-67
2021/08/24 05:27:43;;;;;;;14.38;9.18;;;12.10;99.90;;;;;;5055349;28;20032;-68
2021/08/24 05:30:12;;;;;;;12.40;9.23;;;12.30;99.90;;;;;;5055616;28;20414;-67
2021/08/24 05:32:37;;;;;;;12.18;8.55;;;12.50;99.90;;;;;;5055559;28;20537;-68
2021/08/24 05:35:04;;;;;;;14.65;9.60;;;12.60;99.90;;;;;;5055455;28;20112;-68
2021/08/24 05:37:29;;;;;;;12.52;9.48;;;12.70;99.90;;;;;;5052622;28;20107;-68
2021/08/24 05:39:55;;;;;;;15.73;10.82;;;12.90;99.90;;;;;;5054887;28;20105;-68
2021/08/24 05:42:20;;;;;;;12.25;9.48;;;13.10;99.90;;;;;;5054788;28;20036;-67
2021/08/24 05:44:46;;;;;;;14.73;8.20;;;13.50;99.90;;;;;;5055090;28;20059;-68
2021/08/24 05:47:12;;;;;;;13.85;8.77;;;14.10;99.90;;;;;;5054727;28;20036;-68
2021/08/24 05:49:37;;;;;;;13.25;7.45;;;14.70;99.90;;;;;;5055227;28;20033;-68
2021/08/24 05:52:03;;;;;;;13.57;7.47;;;15.50;99.90;;;;;;5055163;28;20036;-68
2021/08/24 05:54:29;;;;;;;14.43;7.10;;;16.60;99.90;;;;;;5054731;28;20029;-68
2021/08/24 05:56:55;;;;;;;8.60;6.57;;;17.60;99.90;;;;;;5055098;28;20526;-68
2021/08/24 05:59:21;;;;;;;7.25;5.95;;;18.30;99.90;;;;;;5054756;28;20017;-68
2021/08/24 06:01:46;;;;;;;8.45;5.72;;;19.00;99.90;;;;;;5055018;28;20021;-68
2021/08/24 06:04:12;;;;;;;8.35;6.22;;;18.80;99.90;;;;;;5054716;28;20025;-68
2021/08/24 06:06:40;;;;;;;9.20;6.07;;;18.40;99.90;;;;;;5054208;28;20461;-68
2021/08/24 06:09:08;;;;;;;11.75;6.75;;;18.00;99.90;;;;;;5054637;28;20025;-68
2021/08/24 06:11:37;;;;;;;10.85;6.40;;;19.30;99.90;;;;;;5054236;28;20017;-68
2021/08/24 06:14:04;;;;;;;8.40;6.40;;;20.50;99.90;;;;;;5054329;28;20136;-69
2021/08/24 06:16:31;;;;;;;10.88;5.47;;;21.10;99.90;;;;;;5054214;28;20017;-69
2021/08/24 06:18:57;;;;;;;7.25;4.97;;;21.30;99.90;;;;;;5054573;28;20052;-67
2021/08/24 06:21:22;;;;;;;9.15;4.60;;;21.40;99.90;;;;;;5053411;28;20052;-68
2021/08/24 06:23:50;;;;;;;7.00;5.20;;;21.50;99.90;;;;;;5053403;28;20029;-66
2021/08/24 06:26:17;;;;;;;7.70;5.45;;;20.20;99.90;;;;;;5052657;28;20025;-69
2021/08/24 06:28:42;;;;;;;6.25;4.63;;;20.70;99.90;;;;;;5035501;28;20495;-69
2021/08/24 06:31:13;;;;;;;6.85;5.07;;;21.00;99.90;;;;;;5019490;28;20052;-70
2021/08/24 06:33:40;;;;;;;6.00;5.07;;;20.90;99.90;;;;;;5040450;28;20029;-69
2021/08/24 06:36:09;;;;;;;8.38;4.40;;;21.10;99.90;;;;;;5034299;28;20105;-69
2021/08/24 06:38:35;;;;;;;5.65;4.28;;;20.80;99.90;;;;;;5052012;28;20025;-67
2021/08/24 06:41:02;;;;;;;7.63;4.72;;;21.50;99.90;;;;;;5054151;28;20021;-67
2021/08/24 06:43:31;;;;;;;10.65;4.45;;;21.80;99.90;;;;;;5052785;28;20013;-68
2021/08/24 06:45:56;;;;;;;6.10;4.03;;;22.00;99.90;;;;;;5053732;28;20025;-68
2021/08/24 06:48:22;;;;;;;5.70;4.40;;;22.60;99.90;;;;;;5052313;28;20108;-68
2021/08/24 06:50:48;;;;;;;5.25;4.47;;;23.20;99.90;;;;;;5052255;28;20374;-67
2021/08/24 06:53:14;;;;;;;6.35;4.25;;;22.90;99.90;;;;;;5053054;28;20021;-67
2021/08/24 06:55:40;;;;;;;5.20;4.38;;;23.30;99.90;;;;;;5052931;28;20035;-67
2021/08/24 06:58:08;;;;;;;6.57;4.28;;;24.50;99.90;;;;;;5053463;28;20108;-68
2021/08/24 07:00:35;;;;;;;5.78;4.28;;;23.70;99.90;;;;;;5052678;28;20052;-67
2021/08/24 07:03:01;;;;;;;6.53;3.83;;;23.50;99.90;;;;;;5051029;28;20393;-67
2021/08/24 07:05:29;;;;;;;10.30;4.07;;;24.20;99.90;;;;;;5052204;28;20032;-68
2021/08/24 07:07:58;;;;;;;6.38;3.72;;;25.10;99.90;;;;;;5048727;28;20029;-67
2021/08/24 07:10:25;;;;;;;5.15;3.78;;;24.20;99.90;;;;;;5035092;28;20032;-67
2021/08/24 07:12:51;;;;;;;5.00;3.72;;;24.60;99.90;;;;;;5052933;28;20017;-67
2021/08/24 07:15:19;;;;;;;4.22;3.42;;;23.90;99.90;;;;;;5050258;28;20576;-68
2021/08/24 07:17:47;;;;;;;5.82;3.75;;;23.70;99.90;;;;;;5052280;28;20017;-68
2021/08/24 07:20:18;;;;;;;4.13;3.08;;;23.90;99.90;;;;;;5052420;28;20036;-68
2021/08/24 07:22:44;;;;;;;7.50;3.13;;;24.30;99.90;;;;;;5052791;28;20083;-68
2021/08/24 07:25:13;;;;;;;3.67;3.05;;;24.30;99.90;;;;;;5053003;28;20032;-68
2021/08/24 07:27:40;;;;;;;4.90;2.83;;;24.40;99.90;;;;;;5035973;28;20116;-68
2021/08/24 07:30:06;;;;;;;5.03;3.25;;;24.20;99.90;;;;;;5051545;28;20092;-68
2021/08/24 07:32:31;;;;;;;5.93;2.88;;;23.20;99.90;;;;;;5053418;28;20025;-68
2021/08/24 07:34:57;;;;;;;3.65;3.08;;;24.10;99.90;;;;;;5051672;28;20090;-68
2021/08/24 07:37:22;;;;;;;4.95;3.00;;;24.70;99.90;;;;;;5052571;28;20029;-68
2021/08/24 07:39:48;;;;;;;3.90;2.80;;;24.40;99.90;;;;;;5052366;28;20102;-67
2021/08/24 07:42:14;;;;;;;5.78;2.88;;;24.10;99.90;;;;;;5053300;28;20024;-69
2021/08/24 07:44:39;;;;;;;5.25;2.80;;;24.20;99.80;;;;;;5053285;28;20467;-68
2021/08/24 07:47:06;;;;;;;5.65;2.67;;;24.50;99.90;;;;;;5052541;28;20029;-68
2021/08/24 07:49:36;;;;;;;6.63;3.28;;;25.00;99.90;;;;;;5052420;28;20105;-68
2021/08/24 07:52:03;;;;;;;5.53;2.70;;;25.10;98.50;;;;;;5052728;28;20025;-67
2021/08/24 07:54:29;;;;;;;4.93;3.00;;;25.60;99.10;;;;;;5035258;28;20116;-68
2021/08/24 07:56:55;;;;;;;3.80;3.22;;;24.10;98.60;;;;;;5052419;28;20063;-68
2021/08/24 07:59:20;;;;;;;5.07;2.90;;;22.90;99.90;;;;;;5052689;28;20033;-68
2021/08/24 08:01:46;;;;;;;8.23;3.03;;;24.00;99.90;;;;;;5054780;28;20020;-68
2021/08/24 08:04:12;;;;;;;6.93;3.10;;;22.70;99.90;;;;;;5056293;28;20035;-68
2021/08/24 08:06:39;;;;;;;6.47;3.22;;;22.70;99.90;;;;;;5054389;28;20044;-68
2021/08/24 08:09:05;;;;;;;5.03;3.33;;;23.70;99.90;;;;;;5054992;28;20021;-67
2021/08/24 08:11:34;;;;;;;5.20;2.67;;;24.60;99.80;;;;;;5054378;28;20021;-68
2021/08/24 08:14:00;;;;;;;3.90;2.50;;;24.50;97.80;;;;;;5053942;28;20137;-68
2021/08/24 08:16:26;;;;;;;3.88;2.80;;;24.00;98.90;;;;;;5055633;28;20115;-69
2021/08/24 08:18:51;;;;;;;5.78;2.85;;;24.70;99.40;;;;;;5056714;28;20521;-68
2021/08/24 08:21:19;;;;;;;6.20;2.72;;;24.60;98.00;;;;;;5056317;28;20025;-68
2021/08/24 08:23:45;;;;;;;4.10;2.30;;;24.90;97.90;;;;;;5055515;28;20116;-68
2021/08/24 08:26:11;;;;;;;3.33;2.38;;;25.00;96.00;;;;;;5055849;28;20095;-68
2021/08/24 08:28:36;;;;;;;3.38;2.53;;;24.90;96.60;;;;;;5056213;28;20029;-68
2021/08/24 08:31:03;;;;;;;6.82;2.63;;;25.70;96.00;;;;;;5055778;28;20512;-68
2021/08/24 08:33:30;;;;;;;4.57;2.70;;;25.50;94.90;;;;;;5055989;28;20029;-69
2021/08/24 08:35:56;;;;;;;5.45;3.15;;;25.50;94.50;;;;;;5054440;28;20033;-68
2021/08/24 08:38:23;;;;;;;5.60;2.78;;;25.10;95.80;;;;;;5054434;28;20029;-69
2021/08/24 08:41:12;;;;;;;8.30;2.85;;;26.30;96.20;;;;;;5056020;28;20053;-68
2021/08/24 08:43:54;;;;;;;5.72;2.70;;;25.60;96.00;;;;;;5055255;28;20024;-68
2021/08/24 08:47:00;;;;;;;3.80;2.47;;;25.50;95.60;;;;;;5040853;28;20045;-68
2021/08/24 08:49:48;;;;;;;3.65;2.83;;;25.50;95.90;;;;;;5053609;28;20274;-69
2021/08/24 08:52:38;;;;;;;6.10;2.50;;;25.90;94.70;;;;;;5055039;28;20044;-68
2021/08/24 08:58:11;;;;;;;6.50;2.90;;;26.30;94.20;;;;;;5131380;27;20456;-68
2021/08/24 09:00:56;;;;;;;4.20;2.50;;;25.00;95.10;;;;;;5110134;28;20043;-67
2021/08/24 09:03:40;;;;;;;5.00;2.58;;;24.70;94.80;;;;;;5110998;28;20050;-68
2021/08/24 09:06:08;;;;;;;3.80;2.35;;;25.00;95.50;;;;;;5092468;28;20024;-67
2021/08/24 09:08:35;;;;;;;4.53;2.30;;;25.50;93.10;;;;;;5122049;28;20209;-67
2021/08/24 09:11:01;;;;;;;4.65;2.33;;;25.60;92.40;;;;;;5092863;28;20020;-68
2021/08/24 09:13:48;;;;;;;4.78;2.60;;;25.30;92.50;;;;;;5110551;28;20081;-67
2021/08/24 09:16:27;;;;;;;3.65;2.50;;;25.50;92.50;;;;;;5110650;28;20051;-67
2021/08/24 09:19:14;;;;;;;3.33;2.30;;;25.00;93.90;;;;;;5110831;28;20024;-67
2021/08/24 09:21:43;;;;;;;2.70;2.28;;;25.00;94.20;;;;;;5101711;28;20016;-68
2021/08/24 09:24:14;;;;;;;4.10;2.30;;;25.30;94.00;;;;;;5092408;28;20057;-68
2021/08/24 09:27:03;;;;;;;5.80;2.55;;;24.60;93.20;;;;;;5092125;28;20051;-68
2021/08/24 09:29:34;;;;;;;4.60;2.35;;;25.20;92.60;;;;;;5075024;28;20382;-67
2021/08/24 09:32:02;;;;;;;9.70;2.97;;;24.50;92.40;;;;;;5090091;28;20032;-68
2021/08/24 09:34:34;;;;;;;4.63;2.80;;;23.80;94.10;;;;;;5096926;28;20057;-68
2021/08/24 09:37:00;;;;;;;3.97;2.57;;;23.30;94.80;;;;;;5110553;28;20024;-68
2021/08/24 09:39:55;;;;;;;5.05;2.70;;;23.40;95.90;;;;;;5108860;28;20103;-68
2021/08/24 09:42:47;;;;;;;3.30;2.63;;;24.20;93.80;;;;;;5091932;28;20019;-68
2021/08/24 09:50:40;;;;;;;6.07;2.47;;;23.50;94.90;;;;;;5070989;28;20761;-67
2021/08/24 09:53:08;;;;;;;3.42;2.40;;;24.80;94.70;;;;;;5055719;28;20462;-67
2021/08/24 09:55:45;;;;;;;9.30;2.40;;;24.50;93.80;;;;;;5049925;28;20542;-68
2021/08/24 09:58:26;;;;;;;4.22;2.60;;;24.60;93.70;;;;;;5050828;28;20455;-68
2021/08/24 10:01:02;;;;;;;2.92;2.35;;;24.90;92.90;;;;;;5054334;28;20019;-69
2021/08/24 10:03:37;;;;;;;7.20;2.83;;;24.60;95.20;;;;;;5070413;28;20021;-68
2021/08/24 10:06:25;;;;;;;3.95;2.20;;;24.10;94.10;;;;;;5057222;28;20024;-68
2021/08/24 10:08:55;;;;;;;5.18;2.67;;;24.00;94.70;;;;;;5052526;28;20071;-68
2021/08/24 10:11:31;;;;;;;4.18;2.50;;;24.40;94.40;;;;;;5049284;28;20021;-69
2021/08/24 10:14:11;;;;;;;4.03;2.78;;;23.60;96.00;;;;;;5048552;28;20013;-67
2021/08/24 10:16:40;;;;;;;3.05;2.15;;;24.20;94.90;;;;;;5050062;28;20036;-67
2021/08/24 10:19:33;;;;;;;4.43;2.65;;;24.00;95.00;;;;;;5050970;28;20018;-68
2021/08/24 10:22:03;;;;;;;4.40;2.63;;;25.00;93.70;;;;;;5040544;28;20032;-67
2021/08/24 10:24:40;;;;;;;2.97;2.00;;;25.50;94.70;;;;;;5049625;28;20036;-67
2021/08/24 10:27:23;;;;;;;3.40;1.92;;;25.40;92.30;;;;;;5049875;28;20032;-67
2021/08/24 10:29:50;;;;;;;;;;;24.70;93.50;;;;;;5059848;28;20032;-67
2021/08/24 10:32:27;;;;;;;4.88;2.70;;;25.10;93.10;;;;;;5069619;28;19908;-68
2021/08/24 10:34:54;;;;;;;4.82;2.33;;;24.60;92.70;;;;;;5055592;28;20053;-67
2021/08/24 10:37:37;;;;;;;3.85;2.65;;;24.90;92.90;;;;;;5055126;28;20103;-67
2021/08/24 10:43:00;;;;;;;3.90;2.33;;;25.60;93.60;;;;;;5071015;28;20437;-67
2021/08/24 10:45:36;;;;;;;4.38;2.35;;;25.80;92.20;;;;;;5069318;28;20082;-67
2021/08/24 10:48:05;;;;;;;4.45;2.10;;;25.00;92.00;;;;;;5069586;28;20100;-68
2021/08/24 10:50:58;;;;;;;2.60;2.10;;;24.90;95.10;;;;;;5069866;28;20067;-67
2021/08/24 10:54:05;;;;;;;3.67;2.05;;;24.40;93.80;;;;;;5070804;28;20434;-67
2021/08/24 10:56:38;;;;;;;3.67;2.30;;;24.20;95.10;;;;;;5070183;28;20043;-67
2021/08/24 10:59:07;;;;;;;;;;;23.80;93.10;;;;;;5070123;28;20052;-67
2021/08/24 11:01:44;;;;;;;4.68;2.30;;;23.50;95.10;;;;;;5070024;28;19935;-67
2021/08/24 11:04:38;;;;;;;3.97;2.22;;;23.40;94.80;;;;;;5068449;28;20075;-67
2021/08/24 11:07:29;;;;;;;3.83;2.20;;;23.70;94.30;;;;;;5069593;28;20099;-69
2021/08/24 11:12:59;;;;;;;4.78;2.10;;;22.80;95.30;;;;;;5051311;28;20771;-66
2021/08/24 11:18:34;;;;;;;4.55;2.17;;;22.80;96.20;;;;;;5111091;27;20380;-68
2021/08/24 11:21:25;;;;;;;3.30;1.90;;;23.10;95.50;;;;;;5092939;28;20403;-68
2021/08/24 11:24:31;;;;;;;3.58;2.17;;;23.20;96.30;;;;;;5110806;28;20024;-68
2021/08/24 11:29:51;;;;;;;2.53;2.13;;;22.60;95.30;;;;;;5076767;27;20387;-67
2021/08/24 11:32:40;;;;;;;3.10;2.20;;;22.60;97.20;;;;;;5039317;28;20029;-66
2021/08/24 11:35:19;;;;;;;2.70;1.92;;;22.90;97.40;;;;;;5067330;28;20100;-69
2021/08/24 11:37:59;;;;;;;4.70;2.05;;;22.90;96.20;;;;;;5066264;28;20033;-68
2021/08/24 11:40:43;;;;;;;3.53;2.00;;;23.00;97.70;;;;;;5059005;28;20045;-68
2021/08/24 11:43:20;;;;;;;3.08;2.08;;;23.00;96.20;;;;;;5025478;28;20025;-66
2021/08/24 11:45:49;;;;;;;4.47;2.20;;;23.00;95.30;;;;;;5068422;28;20026;-66
2021/08/24 11:48:27;;;;;;;3.28;2.03;;;22.90;97.00;;;;;;5072035;28;20032;-67
2021/08/24 11:51:18;;;;;;;3.65;2.17;;;23.00;94.90;;;;;;5050821;28;20546;-68
2021/08/24 11:54:23;;;;;;;3.40;2.08;;;22.80;95.40;;;;;;5050018;28;20045;-67
2021/08/24 11:56:55;;;;;;;5.80;2.15;;;22.70;96.40;;;;;;5032222;28;20029;-68
2021/08/24 11:59:45;;;;;;;5.70;2.40;;;22.50;95.80;;;;;;5016446;28;20036;-70
2021/08/24 12:02:23;;;;;;;3.20;2.30;;;22.50;96.20;;;;;;5048467;28;20047;-70
2021/08/24 12:04:54;;;;;;;5.95;2.15;;;22.90;95.30;;;;;;5036061;28;20036;-65
2021/08/24 12:07:38;;;;;;;3.15;2.10;;;22.70;95.00;;;;;;5053815;28;20067;-69
2021/08/24 12:10:15;;;;;;;;;;;23.20;97.50;;;;;;5070702;28;20466;-68
2021/08/24 12:12:47;;;;;;;3.08;2.30;;;22.90;95.00;;;;;;5070197;28;19905;-68
2021/08/24 12:15:29;;;;;;;5.20;2.60;;;22.90;94.70;;;;;;5069665;28;20019;-67
2021/08/24 12:18:01;;;;;;;4.38;2.20;;;22.70;95.10;;;;;;5051801;28;20386;-68
2021/08/24 12:20:37;;;;;;;3.05;2.10;;;22.60;95.40;;;;;;5049178;28;20484;-69
2021/08/24 12:23:08;;;;;;;5.85;2.22;;;22.40;95.60;;;;;;5015848;28;20029;-68
2021/08/24 12:25:39;;;;;;;3.80;2.47;;;22.10;96.00;;;;;;5031875;28;20394;-68
2021/08/24 12:28:28;;;;;;;5.32;2.22;;;21.90;96.70;;;;;;5048900;28;20041;-69
2021/08/24 12:33:47;;;;;;;4.30;2.55;;;21.90;96.60;;;;;;5105852;27;20441;-68
2021/08/24 12:36:42;;;;;;;6.82;2.63;;;22.50;97.40;;;;;;5093154;28;20025;-68
2021/08/24 12:39:47;;;;;;;4.50;2.28;;;22.30;96.70;;;;;;5090484;28;20016;-68
2021/08/24 12:42:35;;;;;;;3.80;2.35;;;22.20;97.30;;;;;;5084953;28;20389;-68
2021/08/24 12:53:39;;;;;;;3.90;2.40;;;23.10;95.80;;;;;;5088230;27;20377;-69
2021/08/24 12:56:07;;;;;;;4.32;2.38;;;22.70;96.90;;;;;;5075316;28;20099;-68
2021/08/24 12:58:49;;;;;;;3.80;2.35;;;22.20;96.70;;;;;;5070173;28;20063;-68
2021/08/24 13:01:26;;;;;;;5.10;2.38;;;22.30;96.50;;;;;;5065485;28;20033;-68
2021/08/24 13:04:04;;;;;;;4.75;2.88;;;22.20;96.20;;;;;;5067541;28;20474;-68
2021/08/24 13:06:35;;;;;;;4.57;2.60;;;21.90;96.50;;;;;;5068528;28;20036;-66
2021/08/24 13:09:30;;;;;;;5.47;2.58;;;21.80;96.30;;;;;;5069757;28;20028;-67
2021/08/24 13:12:31;;;;;;;5.13;2.65;;;21.80;96.40;;;;;;5072341;28;20021;-66
2021/08/24 13:14:59;;;;;;;3.83;2.25;;;22.00;96.00;;;;;;5072191;28;20035;-66
2021/08/24 13:17:44;;;;;;;3.40;2.47;;;22.30;97.40;;;;;;5076118;28;20078;-65
2021/08/24 13:20:30;;;;;;;3.58;2.45;;;22.50;96.60;;;;;;5072561;28;20470;-68
2021/08/24 13:23:24;;;;;;;6.25;2.63;;;22.30;96.40;;;;;;5074530;28;20028;-67
2021/08/24 13:25:56;;;;;;;3.67;2.28;;;22.30;96.00;;;;;;5081631;28;20029;-69
2021/08/24 13:28:27;;;;;;;5.95;2.60;;;22.40;97.00;;;;;;5068280;28;20470;-68
2021/08/24 13:30:59;;;;;;;6.35;2.92;;;22.20;96.40;;;;;;5065406;28;20032;-66
2021/08/24 13:33:33;;;;;;;3.90;2.40;;;22.40;96.20;;;;;;5067588;28;20025;-66
2021/08/24 13:36:05;;;;;;;4.30;2.40;;;22.40;96.40;;;;;;5077616;28;20112;-68
2021/08/24 13:38:34;;;;;;;4.63;2.40;;;22.30;96.50;;;;;;5068814;28;20535;-68
2021/08/24 13:41:09;;;;;;;3.53;2.17;;;22.40;96.50;;;;;;5069497;28;20283;-67
2021/08/24 13:43:38;;;;;;;5.55;2.50;;;22.70;97.10;;;;;;5073757;28;20020;-67
2021/08/24 13:46:04;;;;;;;5.80;2.53;;;22.50;95.20;;;;;;5081132;28;20017;-67
2021/08/24 13:48:30;;;;;;;7.63;2.42;;;22.10;95.40;;;;;;5069746;28;20025;-66